createdAt,value
2022-08-17T00:00:17.304Z,2.30
2022-08-17T00:03:05.050Z,2.22
2022-08-17T00:05:35.667Z,2.15
2022-08-17T00:08:03.432Z,2.22
2022-08-17T00:10:32.429Z,2.17
2022-08-17T00:13:01.045Z,3.05
2022-08-17T00:15:28.602Z,2.42
2022-08-17T00:17:56.670Z,2.58
2022-08-17T00:20:32.132Z,2.45
2022-08-17T00:23:08.775Z,1.10
2022-08-17T00:25:36.452Z,2.30
2022-08-17T00:28:04.935Z,2.53
2022-08-17T00:30:53.188Z,2.00
2022-08-17T00:33:23.687Z,2.15
2022-08-17T00:35:52.101Z,2.42
2022-08-17T00:38:20.173Z,2.63
2022-08-17T00:40:49.736Z,1.60
2022-08-17T00:43:37.960Z,2.53
2022-08-17T00:46:07.983Z,2.38
2022-08-17T00:48:36.257Z,2.03
2022-08-17T00:51:06.902Z,2.58
2022-08-17T00:53:38.023Z,1.90
2022-08-17T00:56:07.389Z,1.90
2022-08-17T00:58:36.788Z,1.80
2022-08-17T01:01:06.139Z,2.42
2022-08-17T01:03:34.189Z,2.28
2022-08-17T01:06:03.391Z,1.73
2022-08-17T01:08:31.987Z,3.05
2022-08-17T01:11:02.787Z,2.10
2022-08-17T01:13:39.813Z,1.80
2022-08-17T01:16:12.736Z,2.13
2022-08-17T01:18:40.307Z,2.10
2022-08-17T01:21:13.266Z,2.25
2022-08-17T01:23:43.127Z,2.45
2022-08-17T01:26:10.826Z,2.50
2022-08-17T01:28:53.638Z,2.10
2022-08-17T01:31:24.251Z,2.00
2022-08-17T01:33:51.848Z,2.50
2022-08-17T01:36:19.976Z,2.53
2022-08-17T01:38:47.860Z,2.20
2022-08-17T01:41:17.042Z,1.63
2022-08-17T01:43:47.701Z,2.45
2022-08-17T01:46:16.748Z,2.20
2022-08-17T01:48:48.005Z,1.83
2022-08-17T01:51:16.802Z,1.65
2022-08-17T01:53:48.001Z,2.33
2022-08-17T01:56:17.224Z,2.55
2022-08-17T01:58:44.813Z,2.15
2022-08-17T02:01:15.991Z,2.00
2022-08-17T02:03:53.386Z,2.30
2022-08-17T02:06:28.409Z,2.08
2022-08-17T02:09:01.901Z,1.98
2022-08-17T02:11:31.150Z,1.98
2022-08-17T02:14:02.525Z,1.52
2022-08-17T02:16:36.709Z,1.42
2022-08-17T02:19:05.611Z,2.17
2022-08-17T02:21:33.235Z,1.58
2022-08-17T02:24:00.904Z,2.72
2022-08-17T02:26:28.567Z,2.35
2022-08-17T02:28:56.495Z,2.50
2022-08-17T02:31:24.280Z,3.30
2022-08-17T02:34:00.488Z,2.60
2022-08-17T02:36:33.114Z,2.17
2022-08-17T02:39:02.138Z,2.25
2022-08-17T02:41:29.664Z,2.55
2022-08-17T02:43:57.317Z,1.98
2022-08-17T02:46:24.913Z,2.58
2022-08-17T02:48:52.469Z,2.95
2022-08-17T02:51:22.850Z,3.25
2022-08-17T02:53:50.605Z,3.28
2022-08-17T02:56:18.218Z,2.63
2022-08-17T02:58:47.126Z,2.03
2022-08-17T03:01:14.743Z,4.40
2022-08-17T03:03:42.421Z,2.53
2022-08-17T03:06:10.660Z,2.35
2022-08-17T03:08:38.877Z,2.70
2022-08-17T03:11:06.438Z,2.70
2022-08-17T03:13:34.105Z,3.13
2022-08-17T03:16:01.725Z,2.85
2022-08-17T03:18:29.261Z,2.83
2022-08-17T03:20:58.541Z,3.40
2022-08-17T03:23:27.315Z,2.60
2022-08-17T03:25:56.215Z,3.05
2022-08-17T03:28:24.084Z,2.90
2022-08-17T03:30:52.271Z,2.70
2022-08-17T03:33:21.491Z,2.38
2022-08-17T03:35:49.238Z,2.67
2022-08-17T03:38:17.805Z,3.40
2022-08-17T03:40:56.388Z,2.38
2022-08-17T03:43:26.366Z,2.95
2022-08-17T03:46:28.836Z,3.15
2022-08-17T03:49:18.212Z,2.45
2022-08-17T03:52:04.065Z,2.42
2022-08-17T03:54:49.974Z,2.67
2022-08-17T03:57:18.121Z,3.92
2022-08-17T03:59:45.671Z,3.17
2022-08-17T04:02:25.004Z,2.65
2022-08-17T04:04:53.044Z,2.58
2022-08-17T04:07:21.659Z,2.92
2022-08-17T04:09:49.473Z,2.72
2022-08-17T04:12:17.921Z,2.97
2022-08-17T04:14:53.088Z,3.30
2022-08-17T04:17:26.679Z,2.47
2022-08-17T04:19:54.938Z,2.92
2022-08-17T04:22:30.930Z,3.25
2022-08-17T04:25:05.494Z,3.55
2022-08-17T04:27:33.336Z,2.45
2022-08-17T04:30:01.267Z,3.15
2022-08-17T04:33:04.668Z,2.85
2022-08-17T04:35:23.043Z,2.70
2022-08-17T04:37:50.905Z,2.67
2022-08-17T04:40:38.000Z,2.97
2022-08-17T04:43:07.987Z,2.38
2022-08-17T04:45:39.206Z,2.58
2022-08-17T04:48:07.641Z,3.20
2022-08-17T04:50:36.314Z,3.53
2022-08-17T04:53:04.004Z,2.75
2022-08-17T04:55:32.104Z,2.53
2022-08-17T04:57:59.785Z,3.25
2022-08-17T05:00:27.908Z,3.63
2022-08-17T05:02:56.652Z,2.92
2022-08-17T05:05:26.458Z,3.45
2022-08-17T05:07:55.157Z,2.92
2022-08-17T05:10:23.880Z,3.00
2022-08-17T05:12:59.297Z,3.25
2022-08-17T05:15:27.455Z,2.53
2022-08-17T05:17:55.327Z,2.72
2022-08-17T05:20:23.880Z,2.67
2022-08-17T05:22:52.592Z,3.13
2022-08-17T05:25:24.926Z,3.13
2022-08-17T05:30:21.937Z,3.30
2022-08-17T05:32:57.821Z,3.55
2022-08-17T05:35:26.500Z,2.90
2022-08-17T05:37:54.435Z,3.53
2022-08-17T05:40:24.794Z,4.10
2022-08-17T05:42:52.888Z,3.38
2022-08-17T05:45:39.929Z,3.72
2022-08-17T05:48:10.347Z,3.33
2022-08-17T05:50:44.743Z,3.22
2022-08-17T05:53:22.176Z,3.80
2022-08-17T05:56:29.486Z,2.92
2022-08-17T05:58:58.067Z,3.30
2022-08-17T06:01:28.355Z,3.75
2022-08-17T06:04:11.627Z,3.15
2022-08-17T06:06:40.423Z,2.78
2022-08-17T06:09:07.962Z,3.28
2022-08-17T06:11:53.555Z,2.50
2022-08-17T06:14:21.443Z,3.33
2022-08-17T06:16:55.495Z,2.88
2022-08-17T06:19:34.448Z,2.90
2022-08-17T06:22:04.476Z,2.38
2022-08-17T06:24:32.262Z,2.50
2022-08-17T06:27:02.990Z,2.67
2022-08-17T06:29:38.490Z,2.63
2022-08-17T06:32:12.671Z,2.30
2022-08-17T06:34:40.987Z,3.22
2022-08-17T06:37:29.204Z,2.95
2022-08-17T06:40:16.324Z,2.95
2022-08-17T06:43:02.136Z,2.30
2022-08-17T06:45:42.778Z,2.55
2022-08-17T06:48:10.200Z,2.47
2022-08-17T06:50:41.457Z,2.92
2022-08-17T06:53:21.783Z,2.88
2022-08-17T06:55:58.993Z,2.53
2022-08-17T06:58:29.621Z,2.20
2022-08-17T07:01:01.661Z,2.65
2022-08-17T07:03:50.468Z,3.60
2022-08-17T07:06:22.770Z,2.35
2022-08-17T07:09:00.065Z,2.50
2022-08-17T07:11:31.322Z,2.70
2022-08-17T07:14:17.279Z,2.33
2022-08-17T07:16:47.407Z,2.55
2022-08-17T07:19:16.592Z,2.75
2022-08-17T07:21:50.297Z,2.30
2022-08-17T07:24:29.559Z,2.75
2022-08-17T07:27:08.572Z,2.25
2022-08-17T07:29:47.045Z,1.92
2022-08-17T07:32:19.034Z,2.58
2022-08-17T07:35:19.919Z,1.80
2022-08-17T07:38:24.330Z,2.33
2022-08-17T07:41:06.647Z,2.50
2022-08-17T07:43:43.120Z,2.08
2022-08-17T07:46:55.261Z,2.60
2022-08-17T07:49:25.105Z,2.92
2022-08-17T07:51:52.615Z,2.63
2022-08-17T07:54:22.979Z,2.17
2022-08-17T07:56:56.191Z,3.65
2022-08-17T07:59:27.182Z,2.45
2022-08-17T08:02:02.916Z,2.60
2022-08-17T08:05:00.666Z,2.45
2022-08-17T08:07:57.772Z,2.75
2022-08-17T08:10:36.178Z,2.75
2022-08-17T08:13:07.839Z,2.67
2022-08-17T08:15:45.102Z,2.83
2022-08-17T08:18:54.943Z,2.63
2022-08-17T08:21:23.288Z,3.10
2022-08-17T08:23:51.791Z,2.55
2022-08-17T08:26:22.174Z,2.30
2022-08-17T08:28:55.760Z,2.83
2022-08-17T08:31:29.314Z,1.73
2022-08-17T08:34:04.102Z,2.88
2022-08-17T08:37:12.982Z,2.53
2022-08-17T08:39:43.191Z,1.92
2022-08-17T08:42:30.051Z,2.00
2022-08-17T08:45:16.142Z,1.92
2022-08-17T08:47:55.997Z,2.45
2022-08-17T08:50:38.476Z,2.67
2022-08-17T08:53:19.720Z,2.30
2022-08-17T08:55:59.342Z,2.45
2022-08-17T08:58:42.001Z,1.85
2022-08-17T09:01:22.229Z,2.17
2022-08-17T09:04:24.207Z,2.08
2022-08-17T09:07:10.950Z,3.00
2022-08-17T09:09:41.533Z,1.73
2022-08-17T09:12:09.027Z,2.42
2022-08-17T09:14:45.059Z,2.00
2022-08-17T09:17:18.395Z,2.45
2022-08-17T09:19:46.110Z,1.85
2022-08-17T09:22:18.274Z,2.78
2022-08-17T09:24:55.564Z,1.70
2022-08-17T09:27:24.406Z,2.50
2022-08-17T09:29:58.502Z,1.80
2022-08-17T09:32:32.863Z,2.05
2022-08-17T09:35:03.327Z,2.22
2022-08-17T09:37:36.459Z,2.13
2022-08-17T09:40:24.446Z,2.90
2022-08-17T09:43:10.549Z,3.10
2022-08-17T09:45:51.329Z,2.58
2022-08-17T09:48:28.308Z,3.08
2022-08-17T09:51:05.113Z,2.55
2022-08-17T09:53:34.520Z,2.50
2022-08-17T09:56:16.697Z,2.15
2022-08-17T09:58:44.142Z,2.30
2022-08-17T10:01:27.889Z,2.13
2022-08-17T10:04:16.139Z,3.22
2022-08-17T10:06:52.506Z,2.63
2022-08-17T10:09:27.880Z,2.42
2022-08-17T10:12:18.116Z,2.40
2022-08-17T10:15:08.041Z,2.78
2022-08-17T10:17:51.114Z,2.08
2022-08-17T10:20:27.183Z,2.88
2022-08-17T10:23:15.730Z,2.33
2022-08-17T10:26:05.071Z,2.97
2022-08-17T10:28:37.372Z,2.67
2022-08-17T10:34:13.128Z,2.83
2022-08-17T10:36:53.093Z,2.15
2022-08-17T10:39:29.820Z,3.05
2022-08-17T10:42:01.463Z,4.03
2022-08-17T10:44:40.357Z,2.67
2022-08-17T10:47:10.146Z,2.85
2022-08-17T10:49:39.124Z,3.25
2022-08-17T10:52:26.906Z,3.42
2022-08-17T10:54:59.988Z,3.20
2022-08-17T10:57:30.534Z,2.72
2022-08-17T11:00:02.201Z,3.10
2022-08-17T11:02:40.021Z,2.58
2022-08-17T11:05:12.366Z,2.88
2022-08-17T11:07:44.432Z,2.65
2022-08-17T11:10:18.052Z,2.80
2022-08-17T11:13:02.989Z,2.17
2022-08-17T11:15:52.188Z,3.10
2022-08-17T11:18:22.860Z,2.97
2022-08-17T11:21:00.416Z,3.25
2022-08-17T11:23:42.274Z,3.00
2022-08-17T11:26:26.693Z,3.03
2022-08-17T11:28:59.441Z,3.40
2022-08-17T11:34:27.981Z,3.38
2022-08-17T11:37:04.188Z,2.70
2022-08-17T11:39:41.461Z,3.60
2022-08-17T11:42:27.950Z,2.85
2022-08-17T11:44:59.767Z,2.28
2022-08-17T11:48:16.414Z,3.30
2022-08-17T11:53:38.683Z,3.10
2022-08-17T11:56:07.864Z,3.42
2022-08-17T11:58:45.468Z,2.60
2022-08-17T12:01:16.162Z,2.97
2022-08-17T12:03:54.130Z,1.58
2022-08-17T12:06:43.362Z,2.00
2022-08-17T12:09:19.111Z,2.30
2022-08-17T12:12:01.708Z,2.80
2022-08-17T12:15:08.198Z,2.65
2022-08-17T12:17:41.419Z,2.30
2022-08-17T12:20:14.651Z,2.05
2022-08-17T12:22:56.891Z,2.35
2022-08-17T12:25:41.607Z,3.40
2022-08-17T12:28:27.690Z,2.20
2022-08-17T12:30:57.100Z,3.72
2022-08-17T12:33:28.473Z,4.00
2022-08-17T12:35:59.823Z,2.20
2022-08-17T12:38:32.398Z,1.80
2022-08-17T12:41:00.642Z,1.85
2022-08-17T12:43:35.851Z,2.20
2022-08-17T12:46:14.772Z,2.20
2022-08-17T12:48:59.373Z,2.92
2022-08-17T12:51:28.390Z,2.63
2022-08-17T13:04:40.605Z,2.60
2022-08-17T13:07:08.177Z,1.85
2022-08-17T13:09:40.281Z,2.33
2022-08-17T13:14:37.938Z,1.80
2022-08-17T13:17:12.671Z,2.00
2022-08-17T13:19:48.638Z,2.30
2022-08-17T13:22:16.417Z,2.78
2022-08-17T13:24:53.721Z,2.13
2022-08-17T13:27:22.561Z,2.40
2022-08-17T13:29:54.259Z,2.53
2022-08-17T13:32:26.542Z,2.00
2022-08-17T13:35:12.959Z,2.55
2022-08-17T13:38:02.027Z,2.33
2022-08-17T13:40:31.881Z,2.40
2022-08-17T13:42:59.538Z,2.58
2022-08-17T13:45:34.252Z,2.58
2022-08-17T13:48:07.058Z,2.72
2022-08-17T13:50:34.936Z,2.17
2022-08-17T13:53:02.632Z,2.80
2022-08-17T13:55:31.807Z,2.40
2022-08-17T13:58:00.942Z,2.88
2022-08-17T14:00:36.932Z,2.05
2022-08-17T14:03:06.397Z,2.75
2022-08-17T14:05:36.834Z,2.78
2022-08-17T14:08:06.838Z,2.95
2022-08-17T14:10:36.935Z,1.80
2022-08-17T14:13:04.940Z,2.30
2022-08-17T14:15:55.402Z,2.33
2022-08-17T14:18:55.448Z,2.97
2022-08-17T14:21:10.438Z,2.33
2022-08-17T14:23:38.005Z,1.75
2022-08-17T14:26:05.882Z,1.98
2022-08-17T14:28:33.511Z,3.38
2022-08-17T14:31:04.066Z,1.98
2022-08-17T14:33:31.548Z,2.30
2022-08-17T14:35:59.452Z,2.03
2022-08-17T14:38:27.147Z,2.67
2022-08-17T14:40:54.900Z,2.40
2022-08-17T14:43:22.606Z,2.03
2022-08-17T14:45:50.128Z,1.92
2022-08-17T14:48:17.632Z,2.47
2022-08-17T14:50:46.798Z,2.97
2022-08-17T14:53:16.117Z,1.95
2022-08-17T14:55:47.313Z,2.10
2022-08-17T14:58:16.559Z,2.53
2022-08-17T15:00:44.284Z,2.03
2022-08-17T15:03:12.433Z,2.58
2022-08-17T15:05:40.424Z,2.03
2022-08-17T15:08:08.175Z,2.30
2022-08-17T15:10:35.894Z,2.28
2022-08-17T15:13:03.811Z,2.33
2022-08-17T15:15:31.433Z,2.42
2022-08-17T15:18:00.468Z,2.42
2022-08-17T15:20:29.663Z,2.38
2022-08-17T15:22:59.561Z,1.70
2022-08-17T15:25:28.570Z,2.33
2022-08-17T15:27:56.555Z,1.83
2022-08-17T15:30:24.703Z,1.90
2022-08-17T15:32:55.061Z,1.73
2022-08-17T15:35:28.938Z,2.25
2022-08-17T15:38:11.737Z,1.92
2022-08-17T15:40:42.646Z,1.73
2022-08-17T15:43:12.133Z,2.15
2022-08-17T15:45:40.147Z,2.38
2022-08-17T15:48:08.087Z,2.70
2022-08-17T15:50:36.103Z,2.78
2022-08-17T15:53:05.445Z,2.65
2022-08-17T15:55:33.499Z,1.83
2022-08-17T15:58:01.470Z,1.75
2022-08-17T16:00:30.012Z,1.20
2022-08-17T16:03:44.369Z,1.63
2022-08-17T16:05:48.308Z,2.72
2022-08-17T16:08:20.649Z,1.73
2022-08-17T16:10:48.833Z,1.70
2022-08-17T16:13:18.254Z,1.40
2022-08-17T16:15:51.106Z,2.15
2022-08-17T16:18:25.865Z,1.80
2022-08-17T16:20:54.004Z,2.65
2022-08-17T16:23:21.539Z,2.38
2022-08-17T16:25:53.818Z,1.90
2022-08-17T16:28:35.791Z,1.88
2022-08-17T16:31:04.529Z,1.63
2022-08-17T16:33:32.389Z,2.08
2022-08-17T16:35:59.894Z,2.13
2022-08-17T16:38:27.769Z,1.80
2022-08-17T16:40:55.313Z,1.70
2022-08-17T16:43:23.556Z,1.95
2022-08-17T16:45:52.230Z,1.30
2022-08-17T16:48:20.399Z,1.60
2022-08-17T16:50:59.974Z,2.03
2022-08-17T16:53:31.150Z,1.55
2022-08-17T16:55:59.034Z,1.70
2022-08-17T16:58:26.615Z,1.85
2022-08-17T17:00:54.981Z,1.02
2022-08-17T17:03:25.523Z,1.27
2022-08-17T17:06:14.164Z,1.73
2022-08-17T17:08:49.967Z,1.58
2022-08-17T17:11:46.654Z,1.90
2022-08-17T17:14:25.168Z,2.20
2022-08-17T17:16:58.349Z,1.50
2022-08-17T17:19:34.889Z,1.50
2022-08-17T17:22:25.929Z,1.15
2022-08-17T17:24:59.529Z,1.20
2022-08-17T17:27:40.139Z,1.10
2022-08-17T17:30:13.739Z,1.75
2022-08-17T17:32:45.449Z,1.08
2022-08-17T17:35:14.047Z,1.13
2022-08-17T17:37:43.950Z,0.98
2022-08-17T17:40:23.672Z,1.65
2022-08-17T17:42:53.654Z,1.63
2022-08-17T17:45:23.969Z,1.35
2022-08-17T17:47:51.732Z,1.00
2022-08-17T17:50:20.664Z,1.42
2022-08-17T17:52:54.769Z,1.13
2022-08-17T17:55:22.226Z,1.00
2022-08-17T17:57:56.605Z,1.30
2022-08-17T18:00:31.946Z,1.30
2022-08-17T18:03:24.569Z,1.27
2022-08-17T18:08:35.060Z,1.08
2022-08-17T18:11:14.193Z,1.30
2022-08-17T18:13:52.857Z,1.02
2022-08-17T18:16:21.383Z,1.60
2022-08-17T18:18:50.734Z,0.82
2022-08-17T18:21:20.925Z,0.98
2022-08-17T18:24:02.594Z,0.88
2022-08-17T18:26:37.245Z,1.15
2022-08-17T18:29:25.046Z,1.27
2022-08-17T18:32:28.594Z,1.20
2022-08-17T18:34:58.434Z,1.50
2022-08-17T18:56:25.917Z,0.95
2022-08-17T18:59:01.167Z,1.38
2022-08-17T19:01:51.427Z,1.40
2022-08-17T19:04:40.338Z,1.38
2022-08-17T19:07:10.118Z,0.93
2022-08-17T19:09:41.028Z,1.40
2022-08-17T19:12:09.696Z,1.38
2022-08-17T19:14:37.743Z,1.33
2022-08-17T19:17:12.346Z,1.67
2022-08-17T19:19:53.207Z,1.10
2022-08-17T19:22:32.539Z,1.48
2022-08-17T19:25:09.416Z,1.60
2022-08-17T19:27:57.195Z,1.60
2022-08-17T19:30:25.244Z,1.52
2022-08-17T19:32:53.676Z,1.10
2022-08-17T19:35:22.823Z,1.15
2022-08-17T19:38:01.216Z,1.38
2022-08-17T19:40:51.791Z,1.10
2022-08-17T19:43:35.908Z,1.95
2022-08-17T19:46:12.477Z,2.00
2022-08-17T19:48:55.449Z,1.42
2022-08-17T19:51:35.299Z,1.30
2022-08-17T19:54:09.043Z,1.90
2022-08-17T19:57:02.874Z,1.42
2022-08-17T19:59:50.093Z,1.17
2022-08-17T20:02:23.449Z,1.60
2022-08-17T20:04:51.692Z,1.15
2022-08-17T20:07:24.425Z,1.65
2022-08-17T20:09:55.418Z,1.30
2022-08-17T20:12:29.035Z,1.88
2022-08-17T20:14:59.359Z,1.63
2022-08-17T20:17:31.122Z,1.73
2022-08-17T20:20:19.725Z,1.60
2022-08-17T20:22:52.391Z,1.25
2022-08-17T20:25:32.288Z,1.35
2022-08-17T20:28:07.165Z,1.88
2022-08-17T20:30:38.265Z,1.40
2022-08-17T20:33:06.945Z,1.65
2022-08-17T20:35:37.384Z,1.33
2022-08-17T20:38:07.447Z,1.40
2022-08-17T20:40:39.598Z,1.70
2022-08-17T20:45:50.993Z,1.60
2022-08-17T20:48:36.706Z,1.83
2022-08-17T20:51:20.041Z,1.70
2022-08-17T20:53:47.536Z,1.38
2022-08-17T20:56:33.769Z,2.40
2022-08-17T20:59:01.475Z,1.58
2022-08-17T21:01:40.305Z,1.25
2022-08-17T21:04:09.216Z,1.60
2022-08-17T21:06:56.670Z,1.67
2022-08-17T21:09:30.245Z,1.63
2022-08-17T21:12:04.568Z,1.48
2022-08-17T21:14:37.993Z,2.20
2022-08-17T21:17:18.169Z,1.40
2022-08-17T21:27:58.565Z,1.70
2022-08-17T21:30:32.484Z,2.05
2022-08-17T21:33:20.071Z,1.67
2022-08-17T21:35:51.048Z,0.88
2022-08-17T21:38:20.328Z,1.23
2022-08-17T21:46:11.957Z,1.80
2022-08-17T21:48:44.574Z,1.13
2022-08-17T21:51:15.200Z,1.20
2022-08-17T21:53:49.010Z,1.55
2022-08-17T21:56:29.015Z,1.10
2022-08-17T21:58:59.118Z,1.77
2022-08-17T22:01:28.223Z,1.23
2022-08-17T22:04:13.247Z,1.80
2022-08-17T22:06:54.225Z,1.45
2022-08-17T22:09:36.467Z,1.80
2022-08-17T22:12:07.004Z,1.67
2022-08-17T22:14:52.821Z,1.60
2022-08-17T22:17:29.920Z,1.20
2022-08-17T22:20:01.771Z,1.52
2022-08-17T22:22:32.446Z,1.10
2022-08-17T22:25:07.855Z,1.33
2022-08-17T22:28:04.719Z,1.17
2022-08-17T22:30:57.157Z,1.40
2022-08-17T22:33:34.118Z,0.98
2022-08-17T22:36:29.267Z,1.17
2022-08-17T22:39:09.314Z,1.38
2022-08-17T22:41:56.101Z,1.20
2022-08-17T22:44:26.796Z,1.38
2022-08-17T22:46:56.897Z,1.58
2022-08-17T22:49:29.916Z,1.20
2022-08-17T22:52:05.769Z,1.40
2022-08-17T22:54:52.346Z,1.20
2022-08-17T23:08:08.084Z,1.85
2022-08-17T23:10:38.037Z,2.03
2022-08-17T23:13:05.881Z,2.22
2022-08-17T23:15:34.499Z,1.70
2022-08-17T23:18:05.516Z,2.10
2022-08-17T23:20:34.956Z,1.60
2022-08-17T23:23:04.127Z,1.83
2022-08-17T23:25:32.289Z,1.10
2022-08-17T23:28:02.177Z,1.85
2022-08-17T23:30:32.732Z,1.40
2022-08-17T23:33:02.004Z,2.80
2022-08-17T23:35:40.031Z,1.70
2022-08-17T23:38:12.096Z,1.70
2022-08-17T23:40:40.236Z,1.60
2022-08-17T23:43:24.371Z,1.92
2022-08-17T23:45:54.718Z,2.20
2022-08-17T23:48:35.454Z,1.70
2022-08-17T23:53:34.670Z,1.48
2022-08-17T23:56:09.151Z,1.90
2022-08-17T23:58:39.123Z,1.30
